Time;durP1;ratioP1;P1;durP2;ratioP2;P2;SDS_P1;SDS_P2;PMS_P1;PMS_P2;Temp;Humidity;BMP_temperature;BMP_pressure;BME280_temperature;BME280_humidity;BME280_pressure;Samples;Min_cycle;Max_cycle;Signal;HPM_P1;HPM_P2
2022/08/10 00:02:43;;;;;;;420.92;230.68;;;;;;;;;;5041473;28;20230;-66
2022/08/10 00:05:09;;;;;;;389.02;212.02;;;;;;;;;;5045337;28;20543;-66
2022/08/10 00:07:35;;;;;;;444.65;240.52;;;;;;;;;;5043116;28;20222;-66
2022/08/10 00:10:01;;;;;;;404.27;223.80;;;;;;;;;;5024051;28;20212;-66
2022/08/10 00:12:27;;;;;;;388.67;214.20;;;;;;;;;;5044170;28;20289;-66
2022/08/10 00:14:53;;;;;;;414.93;227.17;;;;;;;;;;5044005;28;20231;-66
2022/08/10 00:17:19;;;;;;;359.50;197.88;;;;;;;;;;5048172;28;20215;-66
2022/08/10 00:19:45;;;;;;;415.50;221.02;;;;;;;;;;5041401;28;20321;-66
2022/08/10 00:22:10;;;;;;;365.05;203.07;;;;;;;;;;5043405;28;20199;-66
2022/08/10 00:24:37;;;;;;;424.80;226.57;;;;;;;;;;5042161;28;20191;-66
2022/08/10 00:27:03;;;;;;;408.63;221.70;;;;;;;;;;5027225;28;20289;-66
2022/08/10 00:29:29;;;;;;;399.02;219.20;;;;;;;;;;5044923;28;20227;-66
2022/08/10 00:31:55;;;;;;;443.85;243.93;;;;;;;;;;5044078;28;20219;-66
2022/08/10 00:34:21;;;;;;;379.00;204.88;;;;;;;;;;5023657;28;20238;-65
2022/08/10 00:36:47;;;;;;;434.00;229.63;;;;;;;;;;5040589;28;20184;-66
2022/08/10 00:39:13;;;;;;;382.48;207.32;;;;;;;;;;5039836;28;20227;-66
2022/08/10 00:41:39;;;;;;;351.67;193.75;;;;;;;;;;5046488;28;20223;-66
2022/08/10 00:44:05;;;;;;;379.77;203.70;;;;;;;;;;5042896;28;20242;-66
2022/08/10 00:46:31;;;;;;;366.38;196.43;;;;;;;;;;5039419;28;20223;-66
2022/08/10 00:48:56;;;;;;;434.80;234.60;;;;;;;;;;5038382;28;20187;-66
2022/08/10 00:51:23;;;;;;;373.90;198.65;;;;;;;;;;5041498;28;20237;-66
2022/08/10 00:53:49;;;;;;;446.95;234.57;;;;;;;;;;5022682;28;20639;-66
2022/08/10 00:56:15;;;;;;;378.23;211.25;;;;;;;;;;5046066;28;20238;-66
2022/08/10 00:58:41;;;;;;;403.50;215.63;;;;;;;;;;5040785;28;20223;-66
2022/08/10 01:01:07;;;;;;;372.17;204.00;;;;;;;;;;5037195;28;20204;-66
2022/08/10 01:03:32;;;;;;;393.30;210.82;;;;;;;;;;5040552;28;20597;-66
2022/08/10 01:06:05;;;;;;;433.20;235.00;;;;;;;;;;5039505;28;20231;-66
2022/08/10 01:08:45;;;;;;;390.35;207.95;;;;;;;;;;5040994;28;20227;-66
2022/08/10 01:11:13;;;;;;;390.50;209.35;;;;;;;;;;5039230;28;20227;-66
2022/08/10 01:13:52;;;;;;;381.88;203.75;;;;;;;;;;5043781;28;20231;-66
2022/08/10 01:16:26;;;;;;;407.02;211.93;;;;;;;;;;5035171;28;20616;-66
2022/08/10 01:19:04;;;;;;;415.73;218.35;;;;;;;;;;5040781;28;20190;-66
2022/08/10 01:22:02;;;;;;;371.55;201.77;;;;;;;;;;5046873;28;20233;-66
2022/08/10 01:24:46;;;;;;;427.73;226.80;;;;;;;;;;4996646;28;20261;-66
2022/08/10 01:27:31;;;;;;;400.67;208.60;;;;;;;;;;5038221;28;20220;-67
2022/08/10 01:29:59;;;;;;;446.42;241.52;;;;;;;;;;5038059;28;20234;-66
2022/08/10 01:32:44;;;;;;;369.95;200.57;;;;;;;;;;5040041;28;20223;-66
2022/08/10 01:35:19;;;;;;;387.15;205.52;;;;;;;;;;5043945;28;20838;-66
2022/08/10 01:37:48;;;;;;;388.75;206.00;;;;;;;;;;5041800;28;20249;-66
2022/08/10 01:40:15;;;;;;;400.27;213.77;;;;;;;;;;5041197;28;20200;-66
2022/08/10 01:42:44;;;;;;;364.27;197.27;;;;;;;;;;5042148;28;20187;-66
2022/08/10 01:45:12;;;;;;;393.85;207.52;;;;;;;;;;5035158;28;20290;-66
2022/08/10 01:50:28;;;;;;;408.95;215.00;;;;;;;;;;5040538;28;20324;-66
2022/08/10 01:52:57;;;;;;;413.80;221.65;;;;;;;;;;5024235;28;20732;-66
2022/08/10 01:55:26;;;;;;;419.67;215.95;;;;;;;;;;5040197;28;20234;-66
2022/08/10 01:57:52;;;;;;;408.92;211.45;;;;;;;;;;5043822;28;20188;-66
2022/08/10 02:00:19;;;;;;;406.35;208.02;;;;;;;;;;5041376;28;20560;-66
2022/08/10 02:02:46;;;;;;;356.85;187.20;;;;;;;;;;5042868;28;20785;-66
2022/08/10 02:05:14;;;;;;;347.33;183.57;;;;;;;;;;5046861;28;20234;-66
2022/08/10 02:07:41;;;;;;;395.25;208.35;;;;;;;;;;5042343;28;20326;-66
2022/08/10 02:10:09;;;;;;;365.38;193.65;;;;;;;;;;5037811;28;20203;-66
2022/08/10 02:12:37;;;;;;;376.02;197.05;;;;;;;;;;5042321;28;20195;-66
2022/08/10 02:15:05;;;;;;;422.67;219.85;;;;;;;;;;5047523;28;20699;-66
2022/08/10 02:17:34;;;;;;;348.30;185.32;;;;;;;;;;5048964;28;20231;-66
2022/08/10 02:20:03;;;;;;;404.85;217.73;;;;;;;;;;5042113;28;20235;-66
2022/08/10 02:22:29;;;;;;;370.15;194.82;;;;;;;;;;5042091;28;20239;-66
2022/08/10 02:24:56;;;;;;;391.38;208.40;;;;;;;;;;5042770;28;20187;-66
2022/08/10 02:27:23;;;;;;;417.42;215.45;;;;;;;;;;5041738;28;21181;-66
2022/08/10 02:29:50;;;;;;;423.90;221.45;;;;;;;;;;5023357;28;22127;-66
2022/08/10 02:32:17;;;;;;;363.88;189.52;;;;;;;;;;5045917;28;20220;-66
2022/08/10 02:34:43;;;;;;;372.17;194.25;;;;;;;;;;5042924;28;20244;-66
2022/08/10 02:37:10;;;;;;;371.55;196.88;;;;;;;;;;5041343;28;20191;-66
2022/08/10 02:39:36;;;;;;;403.88;212.95;;;;;;;;;;5041906;28;20744;-66
2022/08/10 02:42:04;;;;;;;392.73;209.60;;;;;;;;;;5039114;28;20219;-66
2022/08/10 02:44:30;;;;;;;398.77;216.02;;;;;;;;;;5042396;28;20246;-66
2022/08/10 02:47:03;;;;;;;379.27;206.13;;;;;;;;;;5044680;28;20625;-66
2022/08/10 02:49:33;;;;;;;357.63;188.77;;;;;;;;;;5026527;28;20230;-66
2022/08/10 02:52:02;;;;;;;395.92;205.80;;;;;;;;;;5045211;28;20259;-66
2022/08/10 02:54:32;;;;;;;435.73;226.40;;;;;;;;;;5043494;28;20211;-66
2022/08/10 02:57:02;;;;;;;394.98;205.15;;;;;;;;;;5040207;28;20338;-66
2022/08/10 02:59:30;;;;;;;380.30;198.17;;;;;;;;;;5044286;28;20289;-66
2022/08/10 03:01:58;;;;;;;393.80;205.75;;;;;;;;;;5042498;28;20219;-67
2022/08/10 03:04:28;;;;;;;379.43;190.23;;;;;;;;;;5044140;28;20298;-66
2022/08/10 03:07:01;;;;;;;451.27;234.90;;;;;;;;;;5023520;28;20188;-67
2022/08/10 03:09:28;;;;;;;376.65;197.93;;;;;;;;;;5043950;28;20223;-66
2022/08/10 03:11:54;;;;;;;402.33;205.10;;;;;;;;;;5025104;28;20660;-66
2022/08/10 03:14:21;;;;;;;360.98;190.35;;;;;;;;;;5045335;28;20310;-65
2022/08/10 03:16:47;;;;;;;380.00;198.80;;;;;;;;;;5042610;28;20990;-66
2022/08/10 03:19:13;;;;;;;367.30;184.93;;;;;;;;;;5041887;28;20214;-66
2022/08/10 03:21:40;;;;;;;353.40;179.20;;;;;;;;;;5042649;28;20800;-66
2022/08/10 03:24:07;;;;;;;370.20;189.30;;;;;;;;;;5044140;28;20549;-66
2022/08/10 03:26:33;;;;;;;350.35;177.93;;;;;;;;;;5045358;28;20238;-66
2022/08/10 03:29:02;;;;;;;390.70;201.77;;;;;;;;;;5037458;28;21053;-66
2022/08/10 03:31:29;;;;;;;364.85;182.77;;;;;;;;;;5042260;28;20238;-66
2022/08/10 03:33:55;;;;;;;397.27;202.45;;;;;;;;;;5042711;28;20636;-66
2022/08/10 03:36:21;;;;;;;365.90;189.75;;;;;;;;;;5043384;28;20230;-66
2022/08/10 03:38:50;;;;;;;389.60;201.73;;;;;;;;;;5046607;28;20234;-66
2022/08/10 03:41:17;;;;;;;355.00;182.03;;;;;;;;;;5043763;28;20235;-66
2022/08/10 03:43:46;;;;;;;348.53;178.73;;;;;;;;;;5045928;28;20226;-66
2022/08/10 03:46:12;;;;;;;380.10;199.00;;;;;;;;;;5040924;28;20179;-66
2022/08/10 03:48:39;;;;;;;386.13;201.20;;;;;;;;;;5046966;28;20175;-66
2022/08/10 03:51:06;;;;;;;368.80;199.00;;;;;;;;;;5043905;28;20230;-66
2022/08/10 03:53:33;;;;;;;365.43;194.23;;;;;;;;;;5043408;28;20227;-66
2022/08/10 03:55:59;;;;;;;417.67;217.37;;;;;;;;;;5040460;28;20215;-66
2022/08/10 03:58:26;;;;;;;429.57;225.23;;;;;;;;;;5042026;28;20219;-66
2022/08/10 04:00:52;;;;;;;392.20;210.60;;;;;;;;;;5039425;28;20738;-66
2022/08/10 04:03:17;;;;;;;387.57;203.77;;;;;;;;;;5042068;28;22400;-66
2022/08/10 04:05:44;;;;;;;378.90;197.57;;;;;;;;;;5041534;28;20234;-66
2022/08/10 04:08:10;;;;;;;346.50;184.00;;;;;;;;;;5042520;28;20226;-66
2022/08/10 04:10:35;;;;;;;358.13;192.70;;;;;;;;;;5047006;28;20660;-66
2022/08/10 04:13:01;;;;;;;421.40;224.97;;;;;;;;;;5041680;28;20718;-66
2022/08/10 04:15:27;;;;;;;405.33;217.87;;;;;;;;;;5040022;28;20191;-66
2022/08/10 04:17:53;;;;;;;522.30;275.67;;;;;;;;;;5037926;28;20223;-66
2022/08/10 04:20:25;;;;;;;355.33;195.10;;;;;;;;;;5043857;28;20227;-65
2022/08/10 04:22:52;;;;;;;423.60;224.00;;;;;;;;;;5044463;28;20228;-66
2022/08/10 04:25:19;;;;;;;430.33;228.97;;;;;;;;;;5041166;28;20179;-66
2022/08/10 04:27:45;;;;;;;351.47;191.27;;;;;;;;;;5016683;28;20200;-66
2022/08/10 04:30:11;;;;;;;362.40;197.03;;;;;;;;;;5038953;28;20227;-66
2022/08/10 04:32:38;;;;;;;375.07;192.43;;;;;;;;;;5050352;28;20223;-66
2022/08/10 04:35:06;;;;;;;357.83;190.00;;;;;;;;;;5047228;28;20242;-66
2022/08/10 04:37:32;;;;;;;384.30;202.57;;;;;;;;;;5039925;28;20341;-66
2022/08/10 04:39:58;;;;;;;420.10;223.07;;;;;;;;;;5040229;28;20273;-66
2022/08/10 04:42:24;;;;;;;362.43;191.50;;;;;;;;;;5043107;28;20683;-66
2022/08/10 04:44:50;;;;;;;428.43;231.77;;;;;;;;;;5039007;28;20833;-66
2022/08/10 04:47:16;;;;;;;352.33;190.50;;;;;;;;;;5042117;28;20223;-66
2022/08/10 04:49:42;;;;;;;388.30;207.80;;;;;;;;;;5037668;28;20219;-66
2022/08/10 04:52:08;;;;;;;386.37;214.43;;;;;;;;;;5039797;28;20198;-66
2022/08/10 04:54:34;;;;;;;377.30;209.83;;;;;;;;;;5045259;28;20242;-66
2022/08/10 04:57:00;;;;;;;387.47;203.80;;;;;;;;;;5044643;28;20281;-66
2022/08/10 04:59:26;;;;;;;363.90;189.03;;;;;;;;;;5042682;28;20641;-66
2022/08/10 05:01:52;;;;;;;409.57;215.90;;;;;;;;;;5037586;28;20230;-66
2022/08/10 05:04:17;;;;;;;339.03;179.77;;;;;;;;;;5043821;28;20581;-67
2022/08/10 05:06:43;;;;;;;336.87;172.23;;;;;;;;;;5043103;28;20186;-66
2022/08/10 05:09:09;;;;;;;347.30;189.60;;;;;;;;;;5043353;28;20329;-66
2022/08/10 05:11:35;;;;;;;376.43;196.87;;;;;;;;;;5026384;28;20238;-66
2022/08/10 05:14:01;;;;;;;395.13;209.17;;;;;;;;;;5042954;28;20223;-66
2022/08/10 05:16:27;;;;;;;351.93;185.43;;;;;;;;;;5044264;28;20226;-66
2022/08/10 05:18:53;;;;;;;359.60;193.50;;;;;;;;;;5047126;28;20229;-66
2022/08/10 05:21:19;;;;;;;338.70;180.90;;;;;;;;;;5045219;28;20368;-66
2022/08/10 05:23:45;;;;;;;361.23;191.27;;;;;;;;;;5046950;28;20530;-65
2022/08/10 05:26:11;;;;;;;340.23;180.30;;;;;;;;;;5045660;28;20260;-65
2022/08/10 05:28:36;;;;;;;413.23;217.17;;;;;;;;;;5038499;28;20238;-66
2022/08/10 05:31:02;;;;;;;460.50;238.20;;;;;;;;;;5004981;28;20218;-65
2022/08/10 05:33:28;;;;;;;388.63;204.57;;;;;;;;;;5043897;28;20235;-65
2022/08/10 05:35:54;;;;;;;416.83;222.20;;;;;;;;;;5049823;28;20324;-66
2022/08/10 05:38:20;;;;;;;340.97;181.57;;;;;;;;;;5051281;28;20242;-74
2022/08/10 05:40:47;;;;;;;342.23;188.37;;;;;;;;;;5054994;28;20223;-75
2022/08/10 05:43:14;;;;;;;327.37;175.17;;;;;;;;;;5045791;28;20184;-74
2022/08/10 05:45:41;;;;;;;416.00;225.63;;;;;;;;;;5048627;28;20184;-75
2022/08/10 05:48:07;;;;;;;354.13;184.53;;;;;;;;;;5049012;28;20219;-73
2022/08/10 05:50:33;;;;;;;370.47;195.00;;;;;;;;;;5031656;28;20669;-72
2022/08/10 05:52:59;;;;;;;370.10;196.10;;;;;;;;;;5050092;28;20227;-75
2022/08/10 05:55:28;;;;;;;335.90;176.73;;;;;;;;;;5049949;28;20224;-72
2022/08/10 05:57:54;;;;;;;387.90;203.70;;;;;;;;;;5050631;28;20188;-75
2022/08/10 06:00:23;;;;;;;369.97;192.70;;;;;;;;;;5050133;28;20226;-79
2022/08/10 06:02:51;;;;;;;398.20;208.77;;;;;;;;;;5046926;28;20231;-74
2022/08/10 06:05:23;;;;;;;385.30;208.00;;;;;;;;;;5047839;28;20311;-72
2022/08/10 06:07:59;;;;;;;431.13;224.87;;;;;;;;;;5045867;28;20223;-74
2022/08/10 06:10:27;;;;;;;375.23;202.13;;;;;;;;;;5048006;28;20244;-71
2022/08/10 06:15:39;;;;;;;445.90;235.83;;;;;;;;;;5040933;28;20257;-68
2022/08/10 06:18:05;;;;;;;412.70;219.07;;;;;;;;;;5041833;28;20225;-69
2022/08/10 06:20:31;;;;;;;368.57;201.37;;;;;;;;;;5044860;28;20231;-68
2022/08/10 06:23:01;;;;;;;406.00;212.83;;;;;;;;;;5043494;28;20223;-69
2022/08/10 06:25:28;;;;;;;417.97;222.70;;;;;;;;;;5041957;28;20269;-68
2022/08/10 06:27:54;;;;;;;469.67;246.63;;;;;;;;;;5039687;28;20605;-68
2022/08/10 06:30:21;;;;;;;388.07;202.93;;;;;;;;;;5027212;28;21558;-69
2022/08/10 06:32:48;;;;;;;444.30;238.53;;;;;;;;;;5045543;28;20230;-69
2022/08/10 06:35:16;;;;;;;436.67;232.47;;;;;;;;;;5044238;28;20274;-76
2022/08/10 06:37:42;;;;;;;451.60;241.30;;;;;;;;;;5042819;28;20226;-75
2022/08/10 06:40:08;;;;;;;433.70;232.47;;;;;;;;;;5044215;28;20207;-76
2022/08/10 06:42:37;;;;;;;406.67;217.03;;;;;;;;;;5046889;28;20264;-75
2022/08/10 06:45:03;;;;;;;449.35;235.75;;;;;;;;;;5045509;28;20629;-76
2022/08/10 06:47:32;;;;;;;422.77;223.93;;;;;;;;;;5029831;28;20669;-75
2022/08/10 06:49:59;;;;;;;384.07;205.87;;;;;;;;;;5047536;28;20219;-75
2022/08/10 06:52:26;;;;;;;430.55;227.15;;;;;;;;;;5029412;28;20214;-75
2022/08/10 06:54:53;;;;;;;389.67;211.57;;;;;;;;;;5039841;28;20179;-75
2022/08/10 06:57:20;;;;;;;422.43;224.63;;;;;;;;;;5030801;28;20215;-75
2022/08/10 06:59:47;;;;;;;376.23;210.23;;;;;;;;;;5048349;28;20235;-75
2022/08/10 07:02:20;;;;;;;349.92;189.85;;;;;;;;;;5051209;28;20220;-75
2022/08/10 07:04:50;;;;;;;361.45;194.55;;;;;;;;;;5031415;28;20610;-76
2022/08/10 07:07:20;;;;;;;362.60;196.77;;;;;;;;;;5048116;28;20189;-75
2022/08/10 07:09:47;;;;;;;375.15;203.13;;;;;;;;;;5050769;28;20191;-76
2022/08/10 07:12:14;;;;;;;361.08;203.40;;;;;;;;;;5046132;28;20228;-76
2022/08/10 07:14:43;;;;;;;385.30;213.75;;;;;;;;;;5050029;28;20695;-75
2022/08/10 07:17:10;;;;;;;365.13;208.48;;;;;;;;;;5031789;28;20226;-76
2022/08/10 07:19:37;;;;;;;363.85;194.35;;;;;;;;;;5052902;28;20227;-75
2022/08/10 07:22:03;;;;;;;403.67;215.88;;;;;;;;;;5048220;28;20196;-75
2022/08/10 07:24:31;;;;;;;368.45;203.85;;;;;;;;;;5050726;28;20175;-76
2022/08/10 07:26:57;;;;;;;393.90;211.10;;;;;;;;;;5047542;28;20234;-76
2022/08/10 07:29:28;;;;;;;367.95;211.32;;;;;;;;;;5048812;28;20550;-76
2022/08/10 07:31:55;;;;;;;389.50;220.00;;;;;;;;;;5022241;28;20492;-76
2022/08/10 07:34:22;;;;;;;373.65;219.90;;;;;;;;;;5038891;28;20218;-75
2022/08/10 07:36:51;;;;;;;391.20;218.65;;;;;;;;;;5048090;28;20667;-76
2022/08/10 07:39:17;;;;;;;352.20;201.20;;;;;;;;;;5034066;28;20292;-76
2022/08/10 07:41:44;;;;;;;384.35;219.32;;;;;;;;;;5046770;28;20277;-76
2022/08/10 07:44:11;;;;;;;355.42;202.65;;;;;;;;;;5049301;28;20231;-76
2022/08/10 07:46:40;;;;;;;375.83;214.88;;;;;;;;;;5044437;28;20216;-76
2022/08/10 07:49:08;;;;;;;366.60;216.65;;;;;;;;;;5047197;28;20480;-76
2022/08/10 07:51:34;;;;;;;374.48;221.77;;;;;;;;;;5036001;28;20202;-76
2022/08/10 07:54:04;;;;;;;386.50;234.73;;;;;;;;;;5046791;28;20223;-76
2022/08/10 07:56:31;;;;;;;362.60;217.23;;;;;;;;;;5049417;28;20211;-76
2022/08/10 07:59:01;;;;;;;421.52;245.10;;;;;;;;;;5024876;28;20222;-76
2022/08/10 08:01:32;;;;;;;375.70;219.10;;;;;;;;;;5039272;28;20243;-76
2022/08/10 08:03:59;;;;;;;386.90;225.18;;;;;;;;;;5026523;28;20204;-75
2022/08/10 08:06:26;;;;;;;368.95;212.52;;;;;;;;;;5046720;28;20611;-76
2022/08/10 08:08:52;;;;;;;424.15;248.98;;;;;;;;;;5044485;28;20229;-76
2022/08/10 08:11:19;;;;;;;364.58;215.02;;;;;;;;;;5050244;28;20231;-76
2022/08/10 08:13:45;;;;;;;386.77;228.70;;;;;;;;;;5044444;28;20224;-76
2022/08/10 08:16:11;;;;;;;413.13;240.18;;;;;;;;;;5046150;28;20184;-77
2022/08/10 08:18:37;;;;;;;380.85;219.25;;;;;;;;;;5048429;28;20324;-76
2022/08/10 08:21:04;;;;;;;358.65;215.93;;;;;;;;;;5047283;28;20219;-76
2022/08/10 08:23:31;;;;;;;383.45;231.05;;;;;;;;;;5032767;28;20231;-76
2022/08/10 08:25:57;;;;;;;418.40;244.38;;;;;;;;;;5026391;28;20239;-76
2022/08/10 08:28:24;;;;;;;387.23;232.70;;;;;;;;;;5050139;28;20216;-75
2022/08/10 08:30:50;;;;;;;394.45;240.38;;;;;;;;;;5047276;28;20552;-76
2022/08/10 08:33:17;;;;;;;359.92;216.25;;;;;;;;;;5047683;28;20292;-76
2022/08/10 08:35:43;;;;;;;388.40;230.38;;;;;;;;;;5044006;28;20560;-75
2022/08/10 08:38:10;;;;;;;363.85;215.90;;;;;;;;;;5047901;28;20213;-76
2022/08/10 08:40:36;;;;;;;366.33;217.60;;;;;;;;;;5047178;28;20239;-76
2022/08/10 08:43:09;;;;;;;400.80;246.90;;;;;;;;;;5044416;28;20211;-75
2022/08/10 08:45:51;;;;;;;396.70;242.73;;;;;;;;;;5038666;28;20180;-75
2022/08/10 08:48:25;;;;;;;400.15;246.38;;;;;;;;;;5041009;28;21178;-76
2022/08/10 08:51:10;;;;;;;386.63;240.90;;;;;;;;;;5048242;28;20224;-76
2022/08/10 08:54:02;;;;;;;373.63;230.07;;;;;;;;;;5048889;28;20625;-76
2022/08/10 08:56:30;;;;;;;385.05;237.82;;;;;;;;;;5040970;28;20231;-75
2022/08/10 08:59:06;;;;;;;453.83;279.02;;;;;;;;;;5041768;28;20211;-76
2022/08/10 09:01:37;;;;;;;368.63;225.73;;;;;;;;;;5049131;28;20215;-76
2022/08/10 09:04:09;;;;;;;391.80;232.02;;;;;;;;;;5043327;28;20202;-75
2022/08/10 09:06:44;;;;;;;410.27;251.38;;;;;;;;;;5045025;28;20188;-75
2022/08/10 09:09:16;;;;;;;364.75;227.32;;;;;;;;;;5046139;28;20223;-76
2022/08/10 09:12:00;;;;;;;365.92;227.10;;;;;;;;;;5044678;28;20271;-76
2022/08/10 09:14:49;;;;;;;367.75;222.43;;;;;;;;;;5042365;28;20235;-75
2022/08/10 09:17:33;;;;;;;372.02;223.93;;;;;;;;;;5031406;28;20219;-76
2022/08/10 09:20:18;;;;;;;413.48;251.88;;;;;;;;;;5047170;28;20250;-76
2022/08/10 09:22:51;;;;;;;374.20;237.52;;;;;;;;;;5046546;28;20219;-75
2022/08/10 09:25:17;;;;;;;372.90;238.68;;;;;;;;;;5044030;28;20229;-76
2022/08/10 09:27:48;;;;;;;412.92;248.55;;;;;;;;;;5048906;28;20195;-76
2022/08/10 09:30:16;;;;;;;373.58;234.48;;;;;;;;;;5043500;28;20231;-76
2022/08/10 09:32:51;;;;;;;415.70;255.43;;;;;;;;;;5034017;28;20223;-76
2022/08/10 09:35:21;;;;;;;355.27;224.93;;;;;;;;;;5040516;28;20222;-75
2022/08/10 09:37:58;;;;;;;373.95;239.65;;;;;;;;;;5032923;28;20731;-76
2022/08/10 09:40:48;;;;;;;378.52;243.93;;;;;;;;;;5041606;28;20257;-75
2022/08/10 09:43:19;;;;;;;360.40;237.00;;;;;;;;;;5022236;28;20226;-76
2022/08/10 09:45:54;;;;;;;379.77;247.75;;;;;;;;;;5041550;28;20191;-76
2022/08/10 09:48:31;;;;;;;359.25;235.60;;;;;;;;;;5048229;28;20206;-76
2022/08/10 09:50:57;;;;;;;391.33;252.23;;;;;;;;;;5046505;28;20536;-75
2022/08/10 09:53:44;;;;;;;372.40;233.68;;;;;;;;;;5051201;28;20211;-75
2022/08/10 09:56:17;;;;;;;379.15;238.00;;;;;;;;;;5042596;28;20239;-76
2022/08/10 09:59:02;;;;;;;370.00;245.93;;;;;;;;;;5044793;28;20248;-75
2022/08/10 10:01:31;;;;;;;404.33;255.93;;;;;;;;;;5042922;28;20545;-76
2022/08/10 10:04:10;;;;;;;435.00;277.33;;;;;;;;;;5046056;28;20257;-76
2022/08/10 10:06:56;;;;;;;385.98;248.25;;;;;;;;;;5047076;28;20257;-76
2022/08/10 10:09:40;;;;;;;369.65;248.15;;;;;;;;;;5044529;28;20505;-75
2022/08/10 10:12:15;;;;;;;345.48;237.48;;;;;;;;;;5025407;28;20843;-76
2022/08/10 10:18:04;;;;;;;403.90;275.55;;;;;;;;;;5052010;28;20222;-75
2022/08/10 10:20:39;;;;;;;365.90;258.35;;;;;;;;;;5049285;28;20229;-76
2022/08/10 10:23:15;;;;;;;374.08;260.90;;;;;;;;;;5048697;28;20278;-76
2022/08/10 10:25:50;;;;;;;417.02;268.73;;;;;;;;;;5039379;28;20239;-76
2022/08/10 10:28:34;;;;;;;366.25;251.38;;;;;;;;;;5046979;28;20624;-76
2022/08/10 10:31:08;;;;;;;410.13;278.75;;;;;;;;;;5051086;28;20211;-76
2022/08/10 10:33:49;;;;;;;407.77;269.60;;;;;;;;;;5041889;28;20207;-76
2022/08/10 10:36:16;;;;;;;404.30;279.77;;;;;;;;;;5036131;28;20222;-76
2022/08/10 10:38:43;;;;;;;393.48;274.48;;;;;;;;;;5035316;28;20219;-76
2022/08/10 10:41:16;;;;;;;395.40;280.23;;;;;;;;;;5044930;28;20228;-76
2022/08/10 10:43:47;;;;;;;396.23;284.05;;;;;;;;;;5047657;28;20219;-76
2022/08/10 10:46:37;;;;;;;382.65;277.60;;;;;;;;;;5049867;28;20180;-76
2022/08/10 10:49:22;;;;;;;432.33;294.25;;;;;;;;;;5048860;28;20233;-76
2022/08/10 10:51:54;;;;;;;398.65;280.58;;;;;;;;;;5048650;28;20510;-76
2022/08/10 10:54:20;;;;;;;;;;;;;;;;;;5047689;28;20212;-76
2022/08/10 10:56:45;;;;;;;;;;;;;;;;;;5045143;28;20355;-76
2022/08/10 10:59:12;;;;;;;;;;;;;;;;;;5047818;28;20289;-75
2022/08/10 11:01:38;;;;;;;;;;;;;;;;;;5049199;28;19951;-76
2022/08/10 11:04:04;;;;;;;;;;;;;;;;;;5044809;28;20010;-75
2022/08/10 11:06:30;;;;;;;;;;;;;;;;;;5053006;28;19950;-75
2022/08/10 11:08:55;;;;;;;;;;;;;;;;;;5042971;28;19954;-75
2022/08/10 11:11:21;;;;;;;;;;;;;;;;;;5047151;28;20000;-75
2022/08/10 11:13:47;;;;;;;;;;;;;;;;;;5051617;28;19962;-75
2022/08/10 11:16:13;;;;;;;;;;;;;;;;;;5048032;28;20057;-75
2022/08/10 11:18:39;;;;;;;;;;;;;;;;;;5051409;28;19951;-75
2022/08/10 11:21:05;;;;;;;;;;;;;;;;;;5045661;28;20427;-75
2022/08/10 11:23:31;;;;;;;;;;;;;;;;;;5042313;28;19977;-75
2022/08/10 11:25:57;;;;;;;;;;;;;;;;;;5037227;28;19958;-68
2022/08/10 11:28:22;;;;;;;;;;;;;;;;;;5041068;28;19958;-68
2022/08/10 11:30:48;;;;;;;;;;;;;;;;;;5041279;28;20274;-67
2022/08/10 11:33:14;;;;;;;;;;;;;;;;;;5025440;28;19955;-67
2022/08/10 11:35:40;;;;;;;;;;;;;;;;;;5045931;28;19950;-67
2022/08/10 11:38:06;;;;;;;;;;;;;;;;;;5046423;28;19961;-68
2022/08/10 11:40:32;;;;;;;;;;;;;;;;;;5025990;28;19966;-68
2022/08/10 11:42:58;;;;;;;;;;;;;;;;;;5043269;28;19957;-68
2022/08/10 11:45:24;;;;;;;;;;;;;;;;;;5037871;28;19959;-67
2022/08/10 11:47:50;;;;;;;;;;;;;;;;;;5039081;28;19962;-67
2022/08/10 11:50:15;;;;;;;;;;;;;;;;;;5045276;28;19965;-67
2022/08/10 11:52:41;;;;;;;;;;;;;;;;;;5039866;28;19959;-67
2022/08/10 11:55:09;;;;;;;;;;;;;;;;;;5015638;28;20015;-67
2022/08/10 11:57:36;;;;;;;;;;;;;;;;;;5041790;28;20038;-67
2022/08/10 12:00:02;;;;;;;;;;;;;;;;;;5046172;28;19976;-67
2022/08/10 12:02:28;;;;;;;;;;;;;;;;;;5045490;28;19955;-67
2022/08/10 12:04:54;;;;;;;;;;;;;;;;;;5042385;28;19958;-67
2022/08/10 12:07:20;;;;;;;;;;;;;;;;;;5042071;28;20506;-67
2022/08/10 12:09:45;;;;;;;;;;;;;;;;;;5042954;28;19961;-67
2022/08/10 12:12:12;;;;;;;;;;;;;;;;;;5045957;28;19951;-67
2022/08/10 12:14:37;;;;;;;;;;;;;;;;;;5045040;28;20016;-67
2022/08/10 12:17:03;;;;;;;;;;;;;;;;;;5044508;28;19951;-69
2022/08/10 12:19:29;;;;;;;;;;;;;;;;;;5040580;28;19977;-67
2022/08/10 12:21:55;;;;;;;;;;;;;;;;;;5036317;28;19962;-67
2022/08/10 12:24:22;;;;;;;;;;;;;;;;;;5032300;28;19965;-67
2022/08/10 12:26:47;;;;;;;;;;;;;;;;;;5045573;28;20063;-67
2022/08/10 12:29:13;;;;;;;;;;;;;;;;;;5047096;28;19973;-67
2022/08/10 12:31:40;;;;;;;;;;;;;;;;;;5046460;28;19962;-67
2022/08/10 12:34:24;;;;;;;425.80;354.60;;;;;;;;;;5041354;28;20033;-67
2022/08/10 12:36:50;;;;;;;;;;;;;;;;;;5037040;28;20745;-67
2022/08/10 12:39:16;;;;;;;;;;;;;;;;;;5044728;28;19954;-67
2022/08/10 12:41:42;;;;;;;;;;;;;;;;;;5045182;28;20699;-67
2022/08/10 12:44:08;;;;;;;;;;;;;;;;;;5046225;28;19958;-67
2022/08/10 12:46:34;;;;;;;;;;;;;;;;;;5041989;28;20092;-67
2022/08/10 12:49:00;;;;;;;;;;;;;;;;;;5024724;28;19942;-67
2022/08/10 12:51:29;;;;;;;;;;;;;;;;;;5045461;28;19958;-67
2022/08/10 12:53:55;;;;;;;;;;;;;;;;;;5042628;28;19959;-67
2022/08/10 12:56:21;;;;;;;;;;;;;;;;;;5042722;28;19951;-67
2022/08/10 12:58:47;;;;;;;;;;;;;;;;;;5042236;28;20418;-67
2022/08/10 13:01:13;;;;;;;;;;;;;;;;;;5037753;28;20870;-68
2022/08/10 13:03:39;;;;;;;;;;;;;;;;;;5040995;28;19961;-69
2022/08/10 13:06:04;;;;;;;;;;;;;;;;;;5038097;28;19955;-67
2022/08/10 13:11:15;;;;;;;;;;;;;;;;;;5040019;28;22409;-67
2022/08/10 13:13:41;;;;;;;;;;;;;;;;;;5044000;28;19996;-68
2022/08/10 13:16:07;;;;;;;;;;;;;;;;;;5043467;28;19958;-67
2022/08/10 13:18:33;;;;;;;;;;;;;;;;;;5045646;28;19947;-69
2022/08/10 13:20:59;;;;;;;;;;;;;;;;;;5042976;28;20246;-68
2022/08/10 13:23:25;;;;;;;;;;;;;;;;;;5048873;28;19965;-69
2022/08/10 13:25:51;;;;;;;;;;;;;;;;;;5047704;28;20348;-68
2022/08/10 13:28:17;;;;;;;;;;;;;;;;;;5047554;28;19951;-68
2022/08/10 13:30:43;;;;;;;;;;;;;;;;;;5041036;28;20512;-68
2022/08/10 13:33:08;;;;;;;;;;;;;;;;;;5045785;28;20050;-68
2022/08/10 13:35:34;;;;;;;;;;;;;;;;;;5039404;28;19961;-68
2022/08/10 13:38:01;;;;;;;;;;;;;;;;;;5043282;28;19967;-69
2022/08/10 13:40:27;;;;;;;;;;;;;;;;;;5043151;28;19993;-67
2022/08/10 13:42:53;;;;;;;;;;;;;;;;;;5044918;28;19947;-67
2022/08/10 13:45:19;;;;;;;;;;;;;;;;;;5042065;28;19951;-68
2022/08/10 13:47:45;;;;;;;;;;;;;;;;;;5034192;28;19963;-67
2022/08/10 13:50:11;;;;;;;;;;;;;;;;;;5042554;28;20016;-67
2022/08/10 13:52:37;;;;;;;;;;;;;;;;;;5042629;28;19967;-68
2022/08/10 13:55:02;;;;;;;;;;;;;;;;;;5050882;28;19958;-68
2022/08/10 13:57:28;;;;;;;;;;;;;;;;;;5052655;28;19951;-68
2022/08/10 13:59:54;;;;;;;;;;;;;;;;;;5046451;28;19955;-68
2022/08/10 14:02:20;;;;;;;;;;;;;;;;;;5046025;28;20290;-69
2022/08/10 14:04:46;;;;;;;;;;;;;;;;;;5045336;28;20302;-67
2022/08/10 14:07:12;;;;;;;;;;;;;;;;;;5051667;28;19956;-67
2022/08/10 14:09:38;;;;;;;;;;;;;;;;;;5043516;28;19962;-68
2022/08/10 14:12:04;;;;;;;;;;;;;;;;;;5049149;28;20396;-69
2022/08/10 14:14:30;;;;;;;;;;;;;;;;;;5046066;28;20000;-67
2022/08/10 14:16:56;;;;;;;;;;;;;;;;;;5040463;28;19955;-68
2022/08/10 14:19:22;;;;;;;;;;;;;;;;;;5050570;28;19969;-68
2022/08/10 14:21:48;;;;;;;;;;;;;;;;;;5050856;28;20414;-68
2022/08/10 14:24:14;;;;;;;;;;;;;;;;;;5050171;28;19981;-68
2022/08/10 14:26:39;;;;;;;;;;;;;;;;;;5045133;28;19959;-68
2022/08/10 14:29:05;;;;;;;;;;;;;;;;;;5043361;28;19955;-67
2022/08/10 14:31:32;;;;;;;;;;;;;;;;;;5042290;28;20449;-69
2022/08/10 14:33:58;;;;;;;;;;;;;;;;;;5042499;28;19952;-69
2022/08/10 14:36:23;;;;;;;;;;;;;;;;;;5018138;28;19976;-69
2022/08/10 14:38:52;;;;;;;590.40;528.42;;;;;;;;;;5039316;28;20022;-69
2022/08/10 14:41:24;;;;;;;541.03;489.60;;;;;;;;;;5042668;28;20280;-68
2022/08/10 14:44:00;;;;;;;573.08;515.25;;;;;;;;;;5040830;28;20940;-69
2022/08/10 14:46:27;;;;;;;548.88;497.25;;;;;;;;;;5037674;28;20238;-69
2022/08/10 14:48:53;;;;;;;577.88;524.22;;;;;;;;;;5042793;28;20454;-68
2022/08/10 14:51:25;;;;;;;557.03;509.25;;;;;;;;;;5023280;28;20215;-69